Time;durP1;ratioP1;P1;durP2;ratioP2;P2;SDS_P1;SDS_P2;PMS_P1;PMS_P2;Temp;Humidity;BMP_temperature;BMP_pressure;BME280_temperature;BME280_humidity;BME280_pressure;Samples;Min_cycle;Max_cycle;Signal;HPM_P1;HPM_P2
2023/08/16 00:02:18;;;;;;;11.60;10.50;;;23.70;88.60;;;;;;5016112;28;20109;-54
2023/08/16 00:04:44;;;;;;;12.30;11.20;;;23.70;89.40;;;;;;5016252;28;20080;-57
2023/08/16 00:07:10;;;;;;;12.80;11.70;;;23.70;90.10;;;;;;5015524;28;20036;-57
2023/08/16 00:09:36;;;;;;;12.18;11.07;;;23.70;90.50;;;;;;5014459;28;20471;-54
2023/08/16 00:12:01;;;;;;;12.45;11.32;;;23.70;90.90;;;;;;5014843;28;20034;-56
2023/08/16 00:14:27;;;;;;;12.50;11.30;;;23.70;91.20;;;;;;5015808;28;20362;-56
2023/08/16 00:16:53;;;;;;;12.88;11.60;;;23.70;91.70;;;;;;5015796;28;20041;-55
2023/08/16 00:19:18;;;;;;;12.95;11.75;;;23.80;92.20;;;;;;5015185;28;20533;-54
2023/08/16 00:21:44;;;;;;;13.32;12.07;;;23.70;92.70;;;;;;5014938;28;20092;-56
2023/08/16 00:24:10;;;;;;;12.88;11.57;;;23.70;93.20;;;;;;5015360;28;20458;-56
2023/08/16 00:26:35;;;;;;;12.68;11.45;;;23.80;93.50;;;;;;5015086;28;20032;-57
2023/08/16 00:29:02;;;;;;;12.85;11.65;;;23.70;93.60;;;;;;5015276;28;20021;-56
2023/08/16 00:31:28;;;;;;;13.32;12.13;;;23.70;94.00;;;;;;5014832;28;20018;-55
2023/08/16 00:33:54;;;;;;;13.35;12.05;;;23.80;94.30;;;;;;5014897;28;20032;-57
2023/08/16 00:36:19;;;;;;;13.43;12.30;;;23.70;94.40;;;;;;5013638;28;20895;-55
2023/08/16 00:38:45;;;;;;;13.48;12.13;;;23.70;94.50;;;;;;5014946;28;20038;-56
2023/08/16 00:41:11;;;;;;;14.15;12.77;;;23.70;94.50;;;;;;5015342;28;20436;-54
2023/08/16 00:43:37;;;;;;;12.98;11.77;;;23.70;94.40;;;;;;5014806;28;20026;-56
2023/08/16 00:46:07;;;;;;;13.02;11.82;;;23.70;94.40;;;;;;5014943;28;20061;-56
2023/08/16 00:48:34;;;;;;;14.13;12.68;;;23.70;94.30;;;;;;5014766;28;20470;-57
2023/08/16 00:51:01;;;;;;;13.93;12.63;;;23.70;94.10;;;;;;5015047;28;20022;-56
2023/08/16 00:53:30;;;;;;;12.63;11.38;;;23.70;94.00;;;;;;5014473;28;20547;-56
2023/08/16 00:55:59;;;;;;;12.32;11.23;;;23.60;93.90;;;;;;5014853;28;20112;-55
2023/08/16 00:58:25;;;;;;;13.63;12.38;;;23.70;93.80;;;;;;5014549;28;20064;-57
2023/08/16 01:00:51;;;;;;;13.57;11.10;;;23.60;93.80;;;;;;5014523;28;20153;-57
2023/08/16 01:03:17;;;;;;;12.43;11.32;;;23.60;93.70;;;;;;5014757;28;20060;-57
2023/08/16 01:05:42;;;;;;;13.65;12.35;;;23.60;93.50;;;;;;5014196;28;20042;-52
2023/08/16 01:08:08;;;;;;;12.95;11.73;;;23.60;93.40;;;;;;5014028;28;20025;-52
2023/08/16 01:10:56;;;;;;;13.07;11.98;;;23.60;93.30;;;;;;5014326;28;20109;-55
2023/08/16 01:13:35;;;;;;;13.40;12.02;;;23.50;92.80;;;;;;5014464;28;20385;-57
2023/08/16 01:16:07;;;;;;;13.98;12.57;;;23.60;93.20;;;;;;5014206;28;20042;-56
2023/08/16 01:18:36;;;;;;;14.23;12.88;;;23.50;93.50;;;;;;5013450;28;20037;-57
2023/08/16 01:21:04;;;;;;;13.10;11.90;;;23.50;93.70;;;;;;5014812;28;20032;-55
2023/08/16 01:23:36;;;;;;;13.52;12.25;;;23.50;93.70;;;;;;5014285;28;20057;-54
2023/08/16 01:26:29;;;;;;;14.10;12.80;;;23.50;93.80;;;;;;5013741;28;20033;-55
2023/08/16 01:28:57;;;;;;;13.50;12.20;;;23.50;93.50;;;;;;5014009;28;20026;-57
2023/08/16 01:31:23;;;;;;;14.13;12.75;;;23.50;94.20;;;;;;5014149;28;20026;-55
2023/08/16 01:33:48;;;;;;;14.63;13.23;;;23.40;94.50;;;;;;5013830;28;20029;-57
2023/08/16 01:36:14;;;;;;;13.68;12.38;;;23.40;94.90;;;;;;5014001;28;20520;-56
2023/08/16 01:38:40;;;;;;;13.98;12.57;;;23.50;94.90;;;;;;5014167;28;20030;-56
2023/08/16 01:41:17;;;;;;;13.63;12.38;;;23.50;94.60;;;;;;5013904;28;20045;-56
2023/08/16 01:43:44;;;;;;;13.68;12.48;;;23.40;94.30;;;;;;5013957;28;20053;-56
2023/08/16 01:46:11;;;;;;;14.07;12.82;;;23.40;94.30;;;;;;5012982;28;20026;-56
2023/08/16 01:48:38;;;;;;;14.18;12.88;;;23.40;94.30;;;;;;5013432;28;20108;-55
2023/08/16 01:51:05;;;;;;;13.98;12.77;;;23.30;94.30;;;;;;5013484;28;20117;-56
2023/08/16 01:53:34;;;;;;;13.63;12.27;;;23.30;94.20;;;;;;5013486;28;20017;-56
2023/08/16 01:56:00;;;;;;;13.57;12.20;;;23.30;94.10;;;;;;5013458;28;20026;-55
2023/08/16 01:58:25;;;;;;;14.75;13.35;;;23.30;94.10;;;;;;5013637;28;20030;-57
2023/08/16 02:00:51;;;;;;;14.88;13.48;;;23.30;94.10;;;;;;5013348;28;20049;-56
2023/08/16 02:03:17;;;;;;;14.80;13.30;;;23.30;94.20;;;;;;5013478;28;20029;-57
2023/08/16 02:05:42;;;;;;;13.95;12.55;;;23.30;94.30;;;;;;5013168;28;20109;-56
2023/08/16 02:08:10;;;;;;;15.18;13.70;;;23.30;94.70;;;;;;5013701;28;20492;-57
2023/08/16 02:10:36;;;;;;;13.15;12.00;;;23.30;94.40;;;;;;5011888;28;20680;-57
2023/08/16 02:13:02;;;;;;;14.63;13.15;;;23.30;94.30;;;;;;5013101;28;20472;-56
2023/08/16 02:15:28;;;;;;;14.55;13.15;;;23.20;94.20;;;;;;5013481;28;20018;-56
2023/08/16 02:17:53;;;;;;;14.25;13.00;;;23.20;94.20;;;;;;5013245;28;20704;-57
2023/08/16 02:20:19;;;;;;;13.98;12.77;;;23.20;94.20;;;;;;5013230;28;20032;-56
2023/08/16 02:22:45;;;;;;;14.70;13.20;;;23.20;94.20;;;;;;5013415;28;20049;-53
2023/08/16 02:25:11;;;;;;;14.25;12.95;;;23.20;94.30;;;;;;5013244;28;20077;-52
2023/08/16 02:27:37;;;;;;;14.30;12.90;;;23.30;94.30;;;;;;5013347;28;20022;-56
2023/08/16 02:30:04;;;;;;;14.05;12.65;;;23.20;94.20;;;;;;5013341;28;20363;-56
2023/08/16 02:32:30;;;;;;;14.18;12.73;;;23.20;94.10;;;;;;5013780;28;20421;-56
2023/08/16 02:34:56;;;;;;;15.82;14.30;;;23.20;94.00;;;;;;5012981;28;20026;-53
2023/08/16 02:37:23;;;;;;;14.45;13.15;;;23.20;94.00;;;;;;5013362;28;20108;-54
2023/08/16 02:39:49;;;;;;;14.07;12.70;;;23.20;93.90;;;;;;5012797;28;20022;-56
2023/08/16 02:42:14;;;;;;;14.60;13.20;;;23.20;93.80;;;;;;5012918;28;20080;-57
2023/08/16 02:44:40;;;;;;;14.23;12.98;;;23.20;93.70;;;;;;5012984;28;20030;-56
2023/08/16 02:47:06;;;;;;;14.63;13.32;;;23.10;93.80;;;;;;5013089;28;20109;-56
2023/08/16 02:49:32;;;;;;;13.88;12.57;;;23.10;93.90;;;;;;5012973;28;20431;-52
2023/08/16 02:51:57;;;;;;;14.50;13.10;;;23.10;93.90;;;;;;5012918;28;20056;-53
2023/08/16 02:54:23;;;;;;;14.85;13.40;;;23.10;93.90;;;;;;5012825;28;20505;-57
2023/08/16 02:56:49;;;;;;;14.95;13.55;;;23.10;93.90;;;;;;5015261;28;20025;-57
2023/08/16 02:59:15;;;;;;;15.18;13.77;;;23.10;94.00;;;;;;5016595;28;20507;-56
2023/08/16 03:01:40;;;;;;;14.80;13.50;;;23.10;94.00;;;;;;5016897;28;20026;-53
2023/08/16 03:04:06;;;;;;;15.18;13.70;;;23.10;94.30;;;;;;5016817;28;20037;-57
2023/08/16 03:06:32;;;;;;;15.18;13.75;;;23.00;94.50;;;;;;5017035;28;20128;-53
2023/08/16 03:08:59;;;;;;;16.45;14.30;;;23.00;94.80;;;;;;5016807;28;20063;-54
2023/08/16 03:11:24;;;;;;;15.50;14.02;;;23.00;94.90;;;;;;5016395;28;20127;-57
2023/08/16 03:13:50;;;;;;;16.08;14.40;;;23.00;95.00;;;;;;5016218;28;20105;-57
2023/08/16 03:16:16;;;;;;;15.82;14.30;;;23.00;95.10;;;;;;5016336;28;20052;-54
2023/08/16 03:18:41;;;;;;;16.67;15.15;;;23.10;95.30;;;;;;5016791;28;20537;-52
2023/08/16 03:21:07;;;;;;;17.15;15.38;;;23.10;95.40;;;;;;5016425;28;20026;-57
2023/08/16 03:23:33;;;;;;;17.08;15.27;;;23.10;95.60;;;;;;5015867;28;20049;-53
2023/08/16 03:25:58;;;;;;;17.02;15.43;;;23.20;95.80;;;;;;5016146;28;20030;-56
2023/08/16 03:28:24;;;;;;;17.10;15.50;;;23.20;96.10;;;;;;5015861;28;20097;-56
2023/08/16 03:30:49;;;;;;;16.48;15.02;;;23.30;96.10;;;;;;5016064;28;20026;-57
2023/08/16 03:33:15;;;;;;;16.20;14.70;;;23.30;96.10;;;;;;5015848;28;20466;-57
2023/08/16 03:35:41;;;;;;;16.58;14.98;;;23.40;96.00;;;;;;5015704;28;20022;-57
2023/08/16 03:38:06;;;;;;;17.13;15.48;;;23.40;95.90;;;;;;5016166;28;20025;-57
2023/08/16 03:40:32;;;;;;;16.52;14.98;;;23.50;95.90;;;;;;5015794;28;20037;-57
2023/08/16 03:42:58;;;;;;;17.13;15.48;;;23.60;95.80;;;;;;5015439;28;20390;-55
2023/08/16 03:45:25;;;;;;;16.38;14.77;;;23.60;95.80;;;;;;5015878;28;20385;-52
2023/08/16 03:47:53;;;;;;;16.00;14.50;;;23.70;95.70;;;;;;5015229;28;20467;-57
2023/08/16 03:50:19;;;;;;;15.73;14.18;;;23.80;95.50;;;;;;5015762;28;20489;-57
2023/08/16 03:52:45;;;;;;;14.75;13.02;;;23.80;94.90;;;;;;5015012;28;20058;-57
2023/08/16 03:55:10;;;;;;;13.13;11.93;;;23.90;94.20;;;;;;5015187;28;20111;-57
2023/08/16 03:57:36;;;;;;;12.65;11.15;;;24.00;93.50;;;;;;5014752;28;20433;-57
2023/08/16 04:00:04;;;;;;;13.15;11.98;;;24.10;93.20;;;;;;5013331;28;20050;-57
2023/08/16 04:02:30;;;;;;;12.10;11.00;;;24.20;93.10;;;;;;5014091;28;20022;-58
2023/08/16 04:04:55;;;;;;;13.10;11.48;;;24.30;93.20;;;;;;5013436;28;20040;-54
2023/08/16 04:07:21;;;;;;;11.98;10.88;;;24.50;92.80;;;;;;5012168;28;20486;-55
2023/08/16 04:09:47;;;;;;;12.10;10.90;;;24.80;92.30;;;;;;5014020;28;20084;-55
2023/08/16 04:12:12;;;;;;;10.73;9.73;;;25.00;91.00;;;;;;5013049;28;20026;-56
2023/08/16 04:14:38;;;;;;;11.43;10.32;;;25.20;90.00;;;;;;5013952;28;20034;-56
2023/08/16 04:17:04;;;;;;;11.38;10.30;;;25.40;88.40;;;;;;5014086;28;20494;-58
2023/08/16 04:19:31;;;;;;;11.93;10.82;;;25.50;87.00;;;;;;5013893;28;20033;-57
2023/08/16 04:21:57;;;;;;;11.85;10.75;;;25.60;86.10;;;;;;5014009;28;20538;-54
2023/08/16 04:24:22;;;;;;;12.73;11.18;;;25.70;85.00;;;;;;5013670;28;20121;-58
2023/08/16 04:26:48;;;;;;;10.88;9.88;;;25.80;84.20;;;;;;5014248;28;20038;-56
2023/08/16 04:29:14;;;;;;;12.27;11.07;;;25.80;83.80;;;;;;5014036;28;20022;-58
2023/08/16 04:31:39;;;;;;;11.25;10.25;;;25.80;83.30;;;;;;5029120;28;20018;-52
2023/08/16 04:34:06;;;;;;;11.52;10.43;;;25.90;83.20;;;;;;5034728;28;20037;-51
2023/08/16 04:36:31;;;;;;;11.32;10.23;;;25.90;82.80;;;;;;5033961;28;20049;-55
2023/08/16 04:38:57;;;;;;;12.15;11.05;;;25.90;82.50;;;;;;5033719;28;20034;-54
2023/08/16 04:41:22;;;;;;;11.85;10.75;;;25.90;82.20;;;;;;5030346;28;20037;-56
2023/08/16 04:43:48;;;;;;;11.82;10.60;;;25.90;82.20;;;;;;5028239;28;20026;-53
2023/08/16 04:46:14;;;;;;;11.38;10.27;;;25.90;82.20;;;;;;5029393;28;20033;-56
2023/08/16 04:48:39;;;;;;;11.63;10.48;;;25.90;81.80;;;;;;5029005;28;20082;-57
2023/08/16 04:51:05;;;;;;;11.70;10.50;;;26.00;81.20;;;;;;5030127;28;20037;-54
2023/08/16 04:53:30;;;;;;;10.80;9.80;;;26.00;81.10;;;;;;5029015;28;20030;-54
2023/08/16 04:55:56;;;;;;;11.25;10.10;;;26.10;81.10;;;;;;5029175;28;20531;-54
2023/08/16 04:58:22;;;;;;;11.25;10.15;;;26.10;81.00;;;;;;5028394;28;20025;-55
2023/08/16 05:00:47;;;;;;;11.07;10.07;;;26.00;80.90;;;;;;5028154;28;20401;-55
2023/08/16 05:03:13;;;;;;;11.15;10.10;;;26.10;81.30;;;;;;5029234;28;20022;-53
2023/08/16 05:05:38;;;;;;;11.27;10.27;;;26.10;81.30;;;;;;5029723;28;20040;-53
2023/08/16 05:08:04;;;;;;;11.40;10.13;;;26.20;81.40;;;;;;5027915;28;20029;-57
2023/08/16 05:10:30;;;;;;;11.63;10.52;;;26.20;81.20;;;;;;5027083;28;20109;-52
2023/08/16 05:12:55;;;;;;;10.93;9.90;;;26.30;81.00;;;;;;5028322;28;20025;-57
2023/08/16 05:15:21;;;;;;;11.65;10.50;;;26.30;80.90;;;;;;5029237;28;20056;-55
2023/08/16 05:17:47;;;;;;;11.82;10.82;;;26.30;80.80;;;;;;5029130;28;20030;-52
2023/08/16 05:20:12;;;;;;;11.18;10.10;;;26.40;80.50;;;;;;5028357;28;20112;-54
2023/08/16 05:22:38;;;;;;;10.48;9.57;;;26.40;80.30;;;;;;5028729;28;20050;-58
2023/08/16 05:25:04;;;;;;;11.20;10.05;;;26.40;80.00;;;;;;5029328;28;20082;-54
2023/08/16 05:27:30;;;;;;;10.50;9.60;;;26.40;80.10;;;;;;5016589;28;20026;-58
2023/08/16 05:29:55;;;;;;;11.38;10.32;;;26.40;80.20;;;;;;5012573;28;20108;-57
2023/08/16 05:32:21;;;;;;;11.60;10.25;;;26.40;80.20;;;;;;5012190;28;20033;-57
2023/08/16 05:34:46;;;;;;;11.30;10.20;;;26.50;80.20;;;;;;5011676;28;20033;-51
2023/08/16 05:37:12;;;;;;;11.30;10.23;;;26.60;79.80;;;;;;5010989;28;20370;-56
2023/08/16 05:39:39;;;;;;;11.48;10.32;;;26.80;79.20;;;;;;5011279;28;20100;-56
2023/08/16 05:42:05;;;;;;;11.43;10.32;;;26.90;78.40;;;;;;5012177;28;20052;-57
2023/08/16 05:44:30;;;;;;;10.23;9.32;;;27.00;78.10;;;;;;5013352;28;20057;-52
2023/08/16 05:46:56;;;;;;;16.00;10.77;;;27.10;77.90;;;;;;5033437;28;20049;-51
2023/08/16 05:49:22;;;;;;;10.82;9.82;;;27.10;77.60;;;;;;5032171;28;20045;-52
2023/08/16 05:51:47;;;;;;;10.90;9.90;;;27.10;77.70;;;;;;5032106;28;20022;-54
2023/08/16 05:54:13;;;;;;;10.38;9.48;;;27.00;77.40;;;;;;5034138;28;20545;-51
2023/08/16 05:56:38;;;;;;;10.88;9.90;;;27.00;77.50;;;;;;5034473;28;20029;-51
2023/08/16 05:59:04;;;;;;;10.90;10.00;;;27.00;77.50;;;;;;5035748;28;20017;-54
2023/08/16 06:01:30;;;;;;;10.60;9.70;;;27.10;77.40;;;;;;5036221;28;20021;-52
2023/08/16 06:03:55;;;;;;;10.45;9.52;;;27.10;77.70;;;;;;5027040;28;20028;-51
2023/08/16 06:06:21;;;;;;;10.10;9.20;;;27.10;77.50;;;;;;5035883;28;20038;-56
2023/08/16 06:08:46;;;;;;;10.85;9.77;;;27.10;77.30;;;;;;5035638;28;20017;-52
2023/08/16 06:11:12;;;;;;;11.32;10.30;;;27.10;77.00;;;;;;5032694;28;20038;-55
2023/08/16 06:13:38;;;;;;;10.20;9.30;;;27.20;77.00;;;;;;5032556;28;20066;-51
2023/08/16 06:16:03;;;;;;;10.77;9.82;;;27.10;76.50;;;;;;5034220;28;20042;-52
2023/08/16 06:18:29;;;;;;;10.18;9.20;;;27.20;76.60;;;;;;5032876;28;20022;-49
2023/08/16 06:20:55;;;;;;;9.70;8.80;;;27.20;76.60;;;;;;5035026;28;20029;-54
2023/08/16 06:23:20;;;;;;;10.10;9.10;;;27.20;77.00;;;;;;5035784;28;20049;-51
2023/08/16 06:25:46;;;;;;;10.45;9.45;;;27.20;76.80;;;;;;5036419;28;20038;-52
2023/08/16 06:28:12;;;;;;;9.55;8.65;;;27.20;76.50;;;;;;5036431;28;20024;-52
2023/08/16 06:30:37;;;;;;;9.40;8.40;;;27.30;76.00;;;;;;5036143;28;20030;-52
2023/08/16 06:33:04;;;;;;;10.57;8.65;;;27.30;75.80;;;;;;5042688;28;20014;-54
2023/08/16 06:35:29;;;;;;;9.70;8.80;;;27.30;75.40;;;;;;5042592;28;20018;-50
2023/08/16 06:37:57;;;;;;;9.48;8.57;;;27.30;75.20;;;;;;5040870;28;20052;-52
2023/08/16 06:40:23;;;;;;;9.10;8.20;;;27.30;74.90;;;;;;5033158;28;20010;-52
2023/08/16 06:42:49;;;;;;;8.98;8.18;;;27.30;74.50;;;;;;5036265;28;20030;-49
2023/08/16 06:45:14;;;;;;;9.25;8.43;;;27.30;74.50;;;;;;5036481;28;20025;-53
2023/08/16 06:47:42;;;;;;;8.23;7.43;;;27.30;74.30;;;;;;5038633;28;20049;-53
2023/08/16 06:50:08;;;;;;;7.45;6.75;;;27.30;73.80;;;;;;5037675;28;20014;-52
2023/08/16 06:52:34;;;;;;;9.13;7.05;;;27.30;72.70;;;;;;5035746;28;20042;-53
2023/08/16 06:55:00;;;;;;;6.70;5.95;;;27.30;71.80;;;;;;5035961;28;20057;-55
2023/08/16 06:57:26;;;;;;;6.68;5.93;;;27.30;71.40;;;;;;5038894;28;20053;-54
2023/08/16 06:59:51;;;;;;;6.88;6.18;;;27.30;70.40;;;;;;5038767;28;20050;-49
2023/08/16 07:02:17;;;;;;;7.25;6.55;;;27.30;69.90;;;;;;5039431;28;20036;-55
2023/08/16 07:04:43;;;;;;;7.22;6.53;;;27.30;70.20;;;;;;5039593;28;20045;-51
2023/08/16 07:07:10;;;;;;;7.72;6.95;;;27.40;70.60;;;;;;5036993;28;20030;-53
2023/08/16 07:09:35;;;;;;;8.25;7.45;;;27.40;71.10;;;;;;5038041;28;20040;-51
2023/08/16 07:12:01;;;;;;;8.57;7.68;;;27.40;71.10;;;;;;5048759;28;20558;-52
2023/08/16 07:14:27;;;;;;;8.18;7.40;;;27.40;71.60;;;;;;5054908;28;20021;-51
2023/08/16 07:16:53;;;;;;;9.05;8.25;;;27.40;72.10;;;;;;5047621;28;20040;-51
2023/08/16 07:19:18;;;;;;;8.90;8.00;;;27.50;72.20;;;;;;5042740;28;20030;-51
2023/08/16 07:21:44;;;;;;;8.93;8.13;;;27.50;72.00;;;;;;5043966;28;20065;-51
2023/08/16 07:24:10;;;;;;;9.35;8.45;;;27.50;71.80;;;;;;5049840;28;20029;-51
2023/08/16 07:26:35;;;;;;;9.20;8.35;;;27.50;71.90;;;;;;5050586;28;20048;-53
2023/08/16 07:29:01;;;;;;;8.77;7.97;;;27.50;71.60;;;;;;5050533;28;20393;-57
2023/08/16 07:31:27;;;;;;;9.30;7.82;;;27.50;71.90;;;;;;5048323;28;20034;-52
2023/08/16 07:33:52;;;;;;;10.40;9.38;;;27.50;71.60;;;;;;5042963;28;20037;-55
2023/08/16 07:36:18;;;;;;;10.73;9.63;;;27.50;71.40;;;;;;5055585;28;20963;-54
2023/08/16 07:38:47;;;;;;;10.15;9.10;;;27.50;71.30;;;;;;5044945;28;20042;-54
2023/08/16 07:41:13;;;;;;;10.35;9.45;;;27.50;71.60;;;;;;5042175;28;20022;-52
2023/08/16 07:43:38;;;;;;;10.30;9.20;;;27.50;71.70;;;;;;5050536;28;20040;-52
2023/08/16 07:46:04;;;;;;;9.70;8.73;;;27.50;71.90;;;;;;5048693;28;20085;-50
2023/08/16 07:48:30;;;;;;;9.23;8.38;;;27.50;72.00;;;;;;5045456;28;20053;-53
2023/08/16 07:50:55;;;;;;;9.48;8.60;;;27.50;72.20;;;;;;5044207;28;20076;-54
2023/08/16 07:53:22;;;;;;;9.35;8.50;;;27.50;72.20;;;;;;5049025;28;20029;-54
2023/08/16 07:55:48;;;;;;;9.45;8.65;;;27.60;72.80;;;;;;5049183;28;20050;-54
2023/08/16 07:58:15;;;;;;;9.50;8.00;;;27.60;72.20;;;;;;5047291;28;20033;-55
2023/08/16 08:00:46;;;;;;;9.82;8.13;;;27.60;72.00;;;;;;5052633;28;20009;-51
2023/08/16 08:03:11;;;;;;;;;;;27.60;72.10;;;;;;5048789;28;20580;-54
2023/08/16 08:05:37;;;;;;;9.27;8.23;;;27.60;72.00;;;;;;5045779;28;19917;-55
2023/08/16 08:08:04;;;;;;;9.43;8.27;;;27.60;71.70;;;;;;5039846;28;20066;-54
2023/08/16 08:10:31;;;;;;;9.63;8.73;;;27.60;71.10;;;;;;5034765;28;20030;-51
2023/08/16 08:12:58;;;;;;;9.25;8.40;;;27.60;71.00;;;;;;5030993;28;20029;-55
2023/08/16 08:15:23;;;;;;;10.07;8.80;;;27.60;71.00;;;;;;5046870;28;20036;-52
2023/08/16 08:17:49;;;;;;;11.65;8.75;;;27.50;71.40;;;;;;5043522;28;20092;-52
2023/08/16 08:20:15;;;;;;;11.05;10.05;;;27.60;71.70;;;;;;5035401;28;20046;-52
2023/08/16 08:22:40;;;;;;;10.65;9.55;;;27.60;72.10;;;;;;5040448;28;20061;-51
2023/08/16 08:25:07;;;;;;;9.70;8.80;;;27.60;72.50;;;;;;5034115;28;20022;-52
2023/08/16 08:27:33;;;;;;;10.02;8.95;;;27.60;72.90;;;;;;5038366;28;20030;-50
2023/08/16 08:29:59;;;;;;;13.00;9.10;;;27.60;73.00;;;;;;5039367;28;20053;-55
2023/08/16 08:32:24;;;;;;;9.65;8.73;;;27.60;72.90;;;;;;5042855;28;20038;-53
2023/08/16 08:34:50;;;;;;;9.68;8.63;;;27.60;72.80;;;;;;5044831;28;20053;-56
2023/08/16 08:37:16;;;;;;;8.10;7.30;;;27.60;72.70;;;;;;5036971;28;20038;-51
2023/08/16 08:39:41;;;;;;;8.23;7.40;;;27.60;71.90;;;;;;5051050;28;20065;-54
2023/08/16 08:42:09;;;;;;;8.50;7.70;;;27.60;71.50;;;;;;5038577;28;20010;-52
2023/08/16 08:44:37;;;;;;;8.57;7.63;;;27.60;71.50;;;;;;5045951;28;20063;-50
2023/08/16 08:47:05;;;;;;;8.55;7.75;;;27.60;71.70;;;;;;5042491;28;20022;-53
2023/08/16 08:49:34;;;;;;;8.13;7.35;;;27.60;72.00;;;;;;5039002;28;20544;-52
2023/08/16 08:52:02;;;;;;;8.50;7.22;;;27.60;71.90;;;;;;5043764;28;20473;-52
2023/08/16 08:54:27;;;;;;;8.25;7.45;;;27.50;71.70;;;;;;5044587;28;20078;-52
2023/08/16 08:56:54;;;;;;;7.95;7.15;;;27.50;71.40;;;;;;5042464;28;20041;-55
2023/08/16 08:59:20;;;;;;;7.53;6.40;;;27.50;71.20;;;;;;5037460;28;20030;-54
2023/08/16 09:01:48;;;;;;;7.55;6.82;;;27.50;70.80;;;;;;5046062;28;20075;-50
2023/08/16 09:04:15;;;;;;;7.47;6.78;;;27.50;70.70;;;;;;5035238;28;20014;-51
2023/08/16 09:06:42;;;;;;;7.28;6.63;;;27.50;70.70;;;;;;5034142;28;20029;-52
2023/08/16 09:09:08;;;;;;;8.13;7.43;;;27.50;71.10;;;;;;5033492;28;20034;-52
2023/08/16 09:11:33;;;;;;;8.75;7.82;;;27.40;71.80;;;;;;5033578;28;20044;-52
2023/08/16 09:14:02;;;;;;;8.50;7.70;;;27.50;72.60;;;;;;5034309;28;20022;-54
2023/08/16 09:16:27;;;;;;;8.93;7.40;;;27.40;72.80;;;;;;5034123;28;20033;-54
2023/08/16 09:18:53;;;;;;;7.63;6.93;;;27.40;73.30;;;;;;5033782;28;20014;-50
2023/08/16 09:21:24;;;;;;;7.55;6.45;;;27.40;73.20;;;;;;5035333;28;20025;-55
2023/08/16 09:23:58;;;;;;;7.43;6.72;;;27.40;73.20;;;;;;5035749;28;20054;-51
2023/08/16 09:26:29;;;;;;;6.88;6.28;;;27.40;73.00;;;;;;5034765;28;20068;-51
2023/08/16 09:29:02;;;;;;;6.80;6.20;;;27.40;73.00;;;;;;5034362;28;20062;-52
2023/08/16 09:31:31;;;;;;;7.40;6.70;;;27.40;72.90;;;;;;5035872;28;20086;-54
2023/08/16 09:34:01;;;;;;;7.07;6.38;;;27.40;72.90;;;;;;5032596;28;20049;-53
2023/08/16 09:36:31;;;;;;;7.40;6.63;;;27.40;73.00;;;;;;5034201;28;20018;-51
2023/08/16 09:39:01;;;;;;;7.13;6.43;;;27.30;72.70;;;;;;5034200;28;20060;-52
2023/08/16 09:41:27;;;;;;;7.05;6.35;;;27.30;72.70;;;;;;5028900;28;20018;-54
2023/08/16 09:44:00;;;;;;;6.35;5.75;;;27.30;72.60;;;;;;5034842;28;20045;-48
2023/08/16 09:46:26;;;;;;;6.70;6.10;;;27.30;72.80;;;;;;5035271;28;20068;-53
2023/08/16 09:48:52;;;;;;;6.80;6.07;;;27.30;72.90;;;;;;5032186;28;20050;-53
2023/08/16 09:51:18;;;;;;;7.95;5.90;;;27.30;72.70;;;;;;5034266;28;20030;-50
2023/08/16 09:53:47;;;;;;;6.82;5.90;;;27.30;72.70;;;;;;5030669;28;20045;-52
2023/08/16 09:56:14;;;;;;;6.40;5.80;;;27.30;72.10;;;;;;5036014;28;20017;-51
2023/08/16 09:58:40;;;;;;;6.88;5.20;;;27.30;71.70;;;;;;5032942;28;20018;-51
2023/08/16 10:01:06;;;;;;;6.95;5.88;;;27.30;71.60;;;;;;5034890;28;20111;-52
2023/08/16 10:03:33;;;;;;;6.88;5.30;;;27.30;72.60;;;;;;5033626;28;20127;-51
2023/08/16 10:06:00;;;;;;;6.07;5.47;;;27.30;73.60;;;;;;5035276;28;20460;-51
2023/08/16 10:08:27;;;;;;;7.95;5.97;;;27.30;71.70;;;;;;5034541;28;20041;-50
2023/08/16 10:10:54;;;;;;;5.95;4.95;;;27.40;72.00;;;;;;5031363;28;20017;-51
2023/08/16 10:13:23;;;;;;;5.10;4.70;;;27.30;72.00;;;;;;5030717;28;20049;-52
2023/08/16 10:15:50;;;;;;;6.30;5.70;;;27.40;72.10;;;;;;5025418;28;20082;-52
2023/08/16 10:18:18;;;;;;;7.70;4.80;;;27.40;72.20;;;;;;5026748;28;20018;-50
2023/08/16 10:20:48;;;;;;;5.70;5.13;;;27.40;72.00;;;;;;5024546;28;20046;-52
2023/08/16 10:23:18;;;;;;;5.78;5.22;;;27.40;72.80;;;;;;5029573;28;20026;-52
2023/08/16 10:25:45;;;;;;;5.22;4.72;;;27.40;71.60;;;;;;5033321;28;20178;-52
2023/08/16 10:28:14;;;;;;;5.28;4.43;;;27.50;71.80;;;;;;5033619;28;20073;-51
2023/08/16 10:30:42;;;;;;;6.90;5.22;;;27.40;72.80;;;;;;5025413;28;20044;-52
2023/08/16 10:33:14;;;;;;;5.43;4.63;;;27.50;71.50;;;;;;5034258;28;20042;-53
2023/08/16 10:35:40;;;;;;;5.93;4.70;;;27.50;71.50;;;;;;5036513;28;20014;-49
2023/08/16 10:38:06;;;;;;;5.60;4.40;;;27.50;71.00;;;;;;5035596;28;20034;-51
2023/08/16 10:40:32;;;;;;;7.32;4.15;;;27.50;70.20;;;;;;5030153;28;20041;-49
2023/08/16 10:42:59;;;;;;;5.07;4.10;;;27.50;69.40;;;;;;5028095;28;20041;-52
2023/08/16 10:45:30;;;;;;;4.50;4.00;;;27.50;68.90;;;;;;5029279;28;20013;-50
2023/08/16 10:47:56;;;;;;;4.25;3.85;;;27.50;68.80;;;;;;5038898;28;20049;-52
2023/08/16 10:50:37;;;;;;;5.30;4.20;;;27.50;68.70;;;;;;5047783;28;20029;-51
2023/08/16 10:53:05;;;;;;;4.07;3.47;;;27.50;68.90;;;;;;5038093;28;20136;-50
2023/08/16 10:55:30;;;;;;;5.85;3.60;;;27.50;67.40;;;;;;5030421;28;20018;-53
2023/08/16 10:57:56;;;;;;;4.47;3.30;;;27.50;66.60;;;;;;5028096;28;20090;-52
2023/08/16 11:00:32;;;;;;;3.17;2.85;;;27.50;66.90;;;;;;5029172;28;20089;-50
2023/08/16 11:03:04;;;;;;;3.42;3.05;;;27.50;66.60;;;;;;5028843;28;20014;-55
2023/08/16 11:05:33;;;;;;;3.10;2.80;;;27.50;65.50;;;;;;5031590;28;20042;-52
2023/08/16 11:08:03;;;;;;;3.10;2.90;;;27.50;65.20;;;;;;5032783;28;20046;-50
2023/08/16 11:10:37;;;;;;;3.75;3.35;;;27.50;65.50;;;;;;5027783;28;20061;-50
2023/08/16 11:13:08;;;;;;;2.80;2.60;;;27.50;66.20;;;;;;5029747;28;20024;-50
2023/08/16 11:15:35;;;;;;;3.80;2.67;;;27.50;65.60;;;;;;5027555;28;20030;-49
2023/08/16 11:18:01;;;;;;;4.18;3.17;;;27.50;64.70;;;;;;5030292;28;20034;-50
2023/08/16 11:20:29;;;;;;;2.70;2.50;;;27.40;64.10;;;;;;5031640;28;20083;-50
2023/08/16 11:22:55;;;;;;;3.10;2.80;;;27.40;63.20;;;;;;5029296;28;20109;-52
2023/08/16 11:25:21;;;;;;;3.85;2.83;;;27.40;63.20;;;;;;5032141;28;20038;-51
2023/08/16 11:27:47;;;;;;;3.05;2.72;;;27.40;63.20;;;;;;5032784;28;20048;-50
2023/08/16 11:30:13;;;;;;;3.30;2.95;;;27.40;63.40;;;;;;5032300;28;20022;-54
2023/08/16 11:32:40;;;;;;;3.65;3.05;;;27.40;63.60;;;;;;5033675;28;20029;-49
2023/08/16 11:35:06;;;;;;;3.28;2.90;;;27.40;63.50;;;;;;5026188;28;20041;-52
2023/08/16 11:37:33;;;;;;;2.95;2.70;;;27.40;63.10;;;;;;5033628;28;20025;-49
2023/08/16 11:39:59;;;;;;;3.65;2.60;;;27.40;63.50;;;;;;5035314;28;20038;-49
2023/08/16 11:42:29;;;;;;;3.47;2.85;;;27.40;63.70;;;;;;5032952;28;20061;-49
2023/08/16 11:44:54;;;;;;;4.80;3.10;;;27.40;63.60;;;;;;5033256;28;20018;-52
2023/08/16 11:47:21;;;;;;;3.13;2.60;;;27.40;64.10;;;;;;5034905;28;20028;-52
2023/08/16 11:49:48;;;;;;;3.75;3.05;;;27.40;64.70;;;;;;5033977;28;20018;-51
2023/08/16 11:52:20;;;;;;;4.53;3.50;;;27.40;63.90;;;;;;5030964;28;20038;-52
2023/08/16 11:54:46;;;;;;;3.10;2.80;;;27.40;64.10;;;;;;5033709;28;20500;-53
2023/08/16 11:57:16;;;;;;;3.13;2.63;;;27.40;63.90;;;;;;5028778;28;20030;-52
2023/08/16 11:59:42;;;;;;;;;;;27.40;63.90;;;;;;5034573;28;20065;-51
2023/08/16 12:02:08;;;;;;;3.53;3.03;;;27.30;64.90;;;;;;5026372;28;19944;-53
2023/08/16 12:04:34;;;;;;;3.15;2.85;;;27.30;64.80;;;;;;5028570;28;20018;-52
2023/08/16 12:07:00;;;;;;;3.53;2.67;;;27.30;64.70;;;;;;5030901;28;20064;-53
2023/08/16 12:09:26;;;;;;;3.85;3.10;;;27.30;63.90;;;;;;5029645;28;20026;-52
2023/08/16 12:11:51;;;;;;;3.22;2.92;;;27.30;64.10;;;;;;5030926;28;20033;-52
2023/08/16 12:14:17;;;;;;;3.85;2.80;;;27.30;64.60;;;;;;5032271;28;20049;-50
2023/08/16 12:16:43;;;;;;;2.85;2.65;;;27.30;64.30;;;;;;5030917;28;20033;-52
2023/08/16 12:19:08;;;;;;;3.28;2.60;;;27.30;63.90;;;;;;5029202;28;20029;-52
2023/08/16 12:21:34;;;;;;;3.05;2.75;;;27.30;63.60;;;;;;5035079;28;20229;-53
2023/08/16 12:24:00;;;;;;;3.33;3.03;;;27.30;63.50;;;;;;5034596;28;20042;-52
2023/08/16 12:26:25;;;;;;;2.90;2.60;;;27.30;64.00;;;;;;5034180;28;20049;-52
2023/08/16 12:28:51;;;;;;;3.20;2.90;;;27.30;63.00;;;;;;5033241;28;20091;-51
2023/08/16 12:31:16;;;;;;;3.35;2.65;;;27.30;61.80;;;;;;5033229;28;20033;-52
2023/08/16 12:33:43;;;;;;;2.85;2.60;;;27.30;62.00;;;;;;5030579;28;20359;-50
2023/08/16 12:36:09;;;;;;;2.80;2.47;;;27.30;62.30;;;;;;5029171;28;20034;-51